createdAt,value
2017-05-03T00:00:49.365Z,11.15
2017-05-03T00:01:58.327Z,11.22
2017-05-03T00:03:07.590Z,11.22
2017-05-03T00:04:16.555Z,11.15
2017-05-03T00:05:25.512Z,11.21
2017-05-03T00:06:34.465Z,11.24
2017-05-03T00:07:43.505Z,11.14
2017-05-03T00:08:52.760Z,11.19
2017-05-03T00:10:01.716Z,11.25
2017-05-03T00:11:10.678Z,11.21
2017-05-03T00:12:19.630Z,11.19
2017-05-03T00:13:28.582Z,11.21
2017-05-03T00:14:37.837Z,11.19
2017-05-03T00:15:46.791Z,11.21
2017-05-03T00:16:55.748Z,11.19
2017-05-03T00:18:04.702Z,11.22
2017-05-03T00:19:13.991Z,11.27
2017-05-03T00:20:23.199Z,11.24
2017-05-03T00:21:32.152Z,11.24
2017-05-03T00:22:41.195Z,11.24
2017-05-03T00:23:50.149Z,11.28
2017-05-03T00:24:59.143Z,11.22
2017-05-03T00:26:08.399Z,11.17
2017-05-03T00:27:17.359Z,11.24
2017-05-03T00:28:26.313Z,11.14
2017-05-03T00:29:35.269Z,11.18
2017-05-03T00:30:44.234Z,11.24
2017-05-03T00:31:53.484Z,11.17
2017-05-03T00:33:02.444Z,11.15
2017-05-03T00:34:11.398Z,11.15
2017-05-03T00:35:20.354Z,11.22
2017-05-03T00:36:29.313Z,11.22
2017-05-03T00:37:38.571Z,11.19
2017-05-03T00:38:47.527Z,11.18
2017-05-03T00:39:56.533Z,11.25
2017-05-03T00:41:05.813Z,11.22
2017-05-03T00:42:14.769Z,11.18
2017-05-03T00:43:24.351Z,11.14
2017-05-03T00:44:33.309Z,11.22
2017-05-03T00:45:42.362Z,11.28
2017-05-03T00:46:51.312Z,11.21
2017-05-03T00:48:00.270Z,11.18
2017-05-03T00:49:09.529Z,11.14
2017-05-03T00:50:18.490Z,11.22
2017-05-03T00:51:27.455Z,11.24
2017-05-03T00:52:36.410Z,11.24
2017-05-03T00:53:45.365Z,11.21
2017-05-03T00:54:54.620Z,11.15
2017-05-03T00:56:03.669Z,11.17
2017-05-03T00:57:12.626Z,11.15
2017-05-03T00:58:21.579Z,11.27
2017-05-03T00:59:30.535Z,11.24
2017-05-03T01:00:39.795Z,11.24
2017-05-03T01:01:48.750Z,11.22
2017-05-03T01:02:57.704Z,11.27
2017-05-03T01:04:06.660Z,11.27
2017-05-03T01:05:15.618Z,11.24
2017-05-03T01:06:24.820Z,11.18
2017-05-03T01:07:33.773Z,11.18
2017-05-03T01:08:43.325Z,11.21
2017-05-03T01:09:52.602Z,11.22
2017-05-03T01:11:01.565Z,11.21
2017-05-03T01:12:10.822Z,11.22
2017-05-03T01:13:19.784Z,11.22
2017-05-03T01:14:28.831Z,11.15
2017-05-03T01:15:37.793Z,11.14
2017-05-03T01:16:46.751Z,11.17
2017-05-03T01:17:56.013Z,11.25
2017-05-03T01:19:05.052Z,11.21
2017-05-03T01:20:14.023Z,11.21
2017-05-03T01:21:23.302Z,11.15
2017-05-03T01:22:32.260Z,11.17
2017-05-03T01:23:41.464Z,11.17
2017-05-03T01:24:50.418Z,11.15
2017-05-03T01:25:59.375Z,11.19
2017-05-03T01:27:08.326Z,11.14
2017-05-03T01:28:17.296Z,11.17
2017-05-03T01:29:26.745Z,11.14
2017-05-03T01:30:35.699Z,11.14
2017-05-03T01:31:44.657Z,11.21
2017-05-03T01:32:53.621Z,11.19
2017-05-03T01:34:02.583Z,11.24
2017-05-03T01:35:12.106Z,11.28
2017-05-03T01:36:21.143Z,11.22
2017-05-03T01:37:30.099Z,11.25
2017-05-03T01:38:39.052Z,11.33
2017-05-03T01:39:48.013Z,11.27
2017-05-03T01:40:57.302Z,11.21
2017-05-03T01:42:06.263Z,11.22
2017-05-03T01:43:15.225Z,11.19
2017-05-03T01:44:24.510Z,11.14
2017-05-03T01:45:33.468Z,11.17
2017-05-03T01:46:42.679Z,11.17
2017-05-03T01:47:51.640Z,11.14
2017-05-03T01:49:00.610Z,11.19
2017-05-03T01:50:09.570Z,11.18
2017-05-03T01:51:18.857Z,11.18
2017-05-03T01:52:28.198Z,11.15
2017-05-03T01:53:37.151Z,11.24
2017-05-03T01:54:46.109Z,11.22
2017-05-03T01:55:55.068Z,11.22
2017-05-03T01:57:04.114Z,11.22
2017-05-03T01:58:13.466Z,11.17
2017-05-03T01:59:22.421Z,11.24
2017-05-03T02:00:31.373Z,11.19
2017-05-03T02:01:40.333Z,11.27
2017-05-03T02:02:49.375Z,11.24
2017-05-03T02:03:58.636Z,11.27
2017-05-03T02:05:07.592Z,11.24
2017-05-03T02:06:16.632Z,11.25
2017-05-03T02:07:25.666Z,11.18
2017-05-03T02:08:34.715Z,11.21
2017-05-03T02:09:43.969Z,11.11
2017-05-03T02:10:52.927Z,11.27
2017-05-03T02:12:01.880Z,11.24
2017-05-03T02:13:10.847Z,11.19
2017-05-03T02:14:19.890Z,11.25
2017-05-03T02:15:29.152Z,11.24
2017-05-03T02:16:38.111Z,11.27
2017-05-03T02:17:47.098Z,11.28
2017-05-03T02:18:56.056Z,11.24
2017-05-03T02:20:05.013Z,11.22
2017-05-03T02:21:14.266Z,11.29
2017-05-03T02:22:23.218Z,11.25
2017-05-03T02:23:32.186Z,11.21
2017-05-03T02:24:41.138Z,11.24
2017-05-03T02:25:50.212Z,11.28
2017-05-03T02:26:59.797Z,11.29
2017-05-03T02:28:08.792Z,11.35
2017-05-03T02:29:17.751Z,11.29
2017-05-03T02:30:26.707Z,11.42
2017-05-03T02:31:35.665Z,11.37
2017-05-03T02:32:44.925Z,11.39
2017-05-03T02:33:53.888Z,11.39
2017-05-03T02:35:02.936Z,11.35
2017-05-03T02:36:12.220Z,11.36
2017-05-03T02:37:21.171Z,11.39
2017-05-03T02:38:30.433Z,11.33
2017-05-03T02:39:39.486Z,11.43
2017-05-03T02:40:48.439Z,11.42
2017-05-03T02:41:57.392Z,11.39
2017-05-03T02:43:06.395Z,11.4
2017-05-03T02:44:15.604Z,11.37
2017-05-03T02:45:24.643Z,11.39
2017-05-03T02:46:33.681Z,11.36
2017-05-03T02:47:42.641Z,11.43
2017-05-03T02:48:51.687Z,11.43
2017-05-03T02:50:00.897Z,11.36
2017-05-03T02:51:09.847Z,11.47
2017-05-03T02:52:18.803Z,11.44
2017-05-03T02:53:27.757Z,11.44
2017-05-03T02:54:36.738Z,11.39
2017-05-03T02:55:46.002Z,11.36
2017-05-03T02:56:54.959Z,11.39
2017-05-03T02:58:03.926Z,11.35
2017-05-03T02:59:12.882Z,11.29
2017-05-03T03:00:21.839Z,11.4
2017-05-03T03:01:31.088Z,11.32
2017-05-03T03:02:40.049Z,11.35
2017-05-03T03:03:49.014Z,11.29
2017-05-03T03:04:58.299Z,11.35
2017-05-03T03:06:07.256Z,11.29
2017-05-03T03:07:16.466Z,11.28
2017-05-03T03:08:25.422Z,11.28
2017-05-03T03:09:34.380Z,11.25
2017-05-03T03:10:44.073Z,11.24
2017-05-03T03:11:53.112Z,11.22
2017-05-03T03:13:02.448Z,11.25
2017-05-03T03:14:11.495Z,11.28
2017-05-03T03:15:20.451Z,11.28
2017-05-03T03:16:29.493Z,11.22
2017-05-03T03:17:38.450Z,11.35
2017-05-03T03:18:47.989Z,11.32
2017-05-03T03:19:56.948Z,11.24
2017-05-03T03:21:05.907Z,11.24
2017-05-03T03:22:14.860Z,11.28
2017-05-03T03:23:24.156Z,11.18
2017-05-03T03:24:33.357Z,11.22
2017-05-03T03:25:42.316Z,11.25
2017-05-03T03:26:51.363Z,11.19
2017-05-03T03:28:00.642Z,11.24
2017-05-03T03:29:09.599Z,11.18
2017-05-03T03:30:18.899Z,11.19
2017-05-03T03:31:27.938Z,11.14
2017-05-03T03:32:36.888Z,11.11
2017-05-03T03:33:45.856Z,11.14
2017-05-03T03:34:54.815Z,11.1
2017-05-03T03:36:04.022Z,11.07
2017-05-03T03:37:12.976Z,11.14
2017-05-03T03:38:21.931Z,11.1
2017-05-03T03:39:30.977Z,11.04
2017-05-03T03:40:39.926Z,11.03
2017-05-03T03:41:49.134Z,10.99
2017-05-03T03:42:58.094Z,11.02
2017-05-03T03:44:07.156Z,10.99
2017-05-03T03:45:16.113Z,10.89
2017-05-03T03:46:25.066Z,10.97
2017-05-03T03:47:34.603Z,11.03
2017-05-03T03:48:43.570Z,10.94
2017-05-03T03:49:52.855Z,10.89
2017-05-03T03:51:01.818Z,10.85
2017-05-03T03:52:10.775Z,11.02
2017-05-03T03:53:20.403Z,10.86
2017-05-03T03:54:29.360Z,10.92
2017-05-03T03:55:38.639Z,10.89
2017-05-03T03:56:47.594Z,10.89
2017-05-03T03:57:56.552Z,10.92
2017-05-03T03:59:06.635Z,10.97
2017-05-03T04:00:15.600Z,10.89
2017-05-03T04:01:24.559Z,10.86
2017-05-03T04:02:33.508Z,10.96
2017-05-03T04:03:42.462Z,10.96
2017-05-03T04:04:51.854Z,10.89
2017-05-03T04:06:00.811Z,10.89
2017-05-03T04:07:09.766Z,10.92
2017-05-03T04:08:19.043Z,10.92
2017-05-03T04:09:28.008Z,10.89
2017-05-03T04:10:37.225Z,10.88
2017-05-03T04:11:46.183Z,10.91
2017-05-03T04:12:55.138Z,10.85
2017-05-03T04:14:04.089Z,10.82
2017-05-03T04:15:13.051Z,10.79
2017-05-03T04:16:22.593Z,10.7
2017-05-03T04:17:31.544Z,10.66
2017-05-03T04:18:40.505Z,10.73
2017-05-03T04:19:49.459Z,10.64
2017-05-03T04:20:58.415Z,10.63
2017-05-03T04:22:07.621Z,10.6
2017-05-03T04:23:16.573Z,10.61
2017-05-03T04:24:25.532Z,10.6
2017-05-03T04:25:34.488Z,10.63
2017-05-03T04:26:43.443Z,10.64
2017-05-03T04:27:52.649Z,10.52
2017-05-03T04:29:01.928Z,10.63
2017-05-03T04:30:10.882Z,10.55
2017-05-03T04:31:19.832Z,10.48
2017-05-03T04:32:28.794Z,10.67
2017-05-03T04:33:37.995Z,10.51
2017-05-03T04:34:46.951Z,10.48
2017-05-03T04:35:55.905Z,10.59
2017-05-03T04:37:04.948Z,10.6
2017-05-03T04:38:13.992Z,10.48
2017-05-03T04:39:23.201Z,10.52
2017-05-03T04:40:32.175Z,10.52
2017-05-03T04:41:41.127Z,10.45
2017-05-03T04:42:50.081Z,10.51
2017-05-03T04:43:59.040Z,10.52
2017-05-03T04:45:08.664Z,10.59
2017-05-03T04:46:17.614Z,10.48
2017-05-03T04:47:26.663Z,10.6
2017-05-03T04:48:35.625Z,10.6
2017-05-03T04:49:44.664Z,10.64
2017-05-03T04:50:53.958Z,10.55
2017-05-03T04:52:02.912Z,10.6
2017-05-03T04:53:11.867Z,10.66
2017-05-03T04:54:20.858Z,10.67
2017-05-03T04:55:29.815Z,10.67
2017-05-03T04:56:39.021Z,10.63
2017-05-03T04:57:47.978Z,10.64
2017-05-03T04:58:56.938Z,10.55
2017-05-03T05:00:05.893Z,10.6
2017-05-03T05:01:15.189Z,10.66
2017-05-03T05:02:25.036Z,10.47
2017-05-03T05:03:33.990Z,10.63
2017-05-03T05:04:42.952Z,10.6
2017-05-03T05:05:51.910Z,10.52
2017-05-03T05:07:00.872Z,10.59
2017-05-03T05:08:10.080Z,10.64
2017-05-03T05:09:19.037Z,10.6
2017-05-03T05:10:27.989Z,10.52
2017-05-03T05:11:36.943Z,10.48
2017-05-03T05:12:45.900Z,10.52
2017-05-03T05:13:55.118Z,10.47
2017-05-03T05:15:04.173Z,10.63
2017-05-03T05:16:13.216Z,10.66
2017-05-03T05:17:22.257Z,10.59
2017-05-03T05:18:31.301Z,10.64
2017-05-03T05:19:40.507Z,10.61
2017-05-03T05:20:49.469Z,10.61
2017-05-03T05:21:58.421Z,10.63
2017-05-03T05:23:07.462Z,10.67
2017-05-03T05:24:16.418Z,10.68
2017-05-03T05:25:25.623Z,10.67
2017-05-03T05:26:34.575Z,10.73
2017-05-03T05:27:43.529Z,10.68
2017-05-03T05:28:52.484Z,10.67
2017-05-03T05:30:01.445Z,10.7
2017-05-03T05:31:10.742Z,10.64
2017-05-03T05:32:19.781Z,10.64
2017-05-03T05:33:28.822Z,10.68
2017-05-03T05:34:37.780Z,10.67
2017-05-03T05:35:46.816Z,10.63
2017-05-03T05:36:56.019Z,10.63
2017-05-03T05:38:04.971Z,10.59
2017-05-03T05:39:13.928Z,10.66
2017-05-03T05:40:22.888Z,10.61
2017-05-03T05:41:31.848Z,10.56
2017-05-03T05:42:41.057Z,10.55
2017-05-03T05:43:50.017Z,10.6
2017-05-03T05:44:59.002Z,10.55
2017-05-03T05:46:08.153Z,10.7
2017-05-03T05:47:17.308Z,10.64
2017-05-03T05:48:26.576Z,10.59
2017-05-03T05:49:35.638Z,10.45
2017-05-03T05:50:44.625Z,10.64
2017-05-03T05:51:53.578Z,10.59
2017-05-03T05:53:03.343Z,10.64
2017-05-03T05:54:12.820Z,10.56
2017-05-03T05:55:21.803Z,10.48
2017-05-03T05:56:31.818Z,10.59
2017-05-03T05:57:40.781Z,10.55
2017-05-03T05:58:49.744Z,10.52
2017-05-03T05:59:58.953Z,10.56
2017-05-03T06:01:08.238Z,10.53
2017-05-03T06:02:17.434Z,10.59
2017-05-03T06:03:26.531Z,10.63
2017-05-03T06:04:35.485Z,10.56
2017-05-03T06:05:45.799Z,10.63
2017-05-03T06:06:55.872Z,10.63
2017-05-03T06:08:06.109Z,10.68
2017-05-03T06:09:15.067Z,10.71
2017-05-03T06:10:24.031Z,10.68
2017-05-03T06:11:33.245Z,10.73
2017-05-03T06:12:42.574Z,10.74
2017-05-03T06:13:51.622Z,10.7
2017-05-03T06:15:00.965Z,10.74
2017-05-03T06:16:09.923Z,10.71
2017-05-03T06:17:19.133Z,10.76
2017-05-03T06:18:28.096Z,10.82
2017-05-03T06:19:37.055Z,10.82
2017-05-03T06:20:46.092Z,10.86
2017-05-03T06:21:55.056Z,10.91
2017-05-03T06:23:04.270Z,10.97
2017-05-03T06:24:13.230Z,10.96
2017-05-03T06:25:22.184Z,11.15
2017-05-03T06:26:31.145Z,11.17
2017-05-03T06:27:40.100Z,11.11
2017-05-03T06:28:49.654Z,11.15
2017-05-03T06:29:58.611Z,11.22
2017-05-03T06:31:07.564Z,11.22
2017-05-03T06:32:16.517Z,11.18
2017-05-03T06:33:25.478Z,11.22
2017-05-03T06:34:34.689Z,11.18
2017-05-03T06:35:43.647Z,11.21
2017-05-03T06:36:52.604Z,11.19
2017-05-03T06:38:01.976Z,11.21
2017-05-03T06:39:10.927Z,11.27
2017-05-03T06:40:20.134Z,11.29
2017-05-03T06:41:29.121Z,11.22
2017-05-03T06:42:38.116Z,11.22
2017-05-03T06:43:47.081Z,11.22
2017-05-03T06:44:56.114Z,11.29
2017-05-03T06:46:05.340Z,11.29
2017-05-03T06:47:14.293Z,11.29
2017-05-03T06:48:23.339Z,11.22
2017-05-03T06:49:32.358Z,11.29
2017-05-03T06:50:41.462Z,11.27
2017-05-03T06:51:50.674Z,11.33
2017-05-03T06:52:59.681Z,11.36
2017-05-03T06:54:09.776Z,11.33
2017-05-03T06:55:18.744Z,11.32
2017-05-03T06:56:27.875Z,11.39
2017-05-03T06:57:37.223Z,11.32
2017-05-03T06:58:46.207Z,11.36
2017-05-03T06:59:55.199Z,11.43
2017-05-03T07:01:04.482Z,11.54
2017-05-03T07:02:13.437Z,11.58
2017-05-03T07:03:22.637Z,11.7
2017-05-03T07:04:31.598Z,11.67
2017-05-03T07:05:40.562Z,11.58
2017-05-03T07:06:49.521Z,11.58
2017-05-03T07:07:59.198Z,11.58
2017-05-03T07:09:10.326Z,11.44
2017-05-03T07:10:19.287Z,11.44
2017-05-03T07:11:28.381Z,11.49
2017-05-03T07:12:37.466Z,11.54
2017-05-03T07:13:46.419Z,11.58
2017-05-03T07:14:55.621Z,11.67
2017-05-03T07:16:04.847Z,11.8
2017-05-03T07:17:13.799Z,11.8
2017-05-03T07:18:22.765Z,11.69
2017-05-03T07:19:31.732Z,11.73
2017-05-03T07:20:40.946Z,11.69
2017-05-03T07:21:49.911Z,11.75
2017-05-03T07:22:59.185Z,11.79
2017-05-03T07:24:08.141Z,11.86
2017-05-03T07:25:17.095Z,11.9
2017-05-03T07:26:26.348Z,11.94
2017-05-03T07:27:35.393Z,11.98
2017-05-03T07:28:44.355Z,11.98
2017-05-03T07:29:53.319Z,12.01
2017-05-03T07:31:02.365Z,11.98
2017-05-03T07:32:11.595Z,11.99
2017-05-03T07:33:20.648Z,12.07
2017-05-03T07:34:29.613Z,12.13
2017-05-03T07:35:38.568Z,12.09
2017-05-03T07:36:47.544Z,12.1
2017-05-03T07:37:56.807Z,12.2
2017-05-03T07:39:05.767Z,12.32
2017-05-03T07:40:14.726Z,12.28
2017-05-03T07:41:23.708Z,12.39
2017-05-03T07:42:32.666Z,12.39
2017-05-03T07:43:41.871Z,12.45
2017-05-03T07:44:50.835Z,12.49
2017-05-03T07:46:00.196Z,12.47
2017-05-03T07:47:09.242Z,12.57
2017-05-03T07:48:18.202Z,12.64
2017-05-03T07:49:27.406Z,12.65
2017-05-03T07:50:36.369Z,12.68
2017-05-03T07:51:45.339Z,12.71
2017-05-03T07:52:54.296Z,12.74
2017-05-03T07:54:03.259Z,12.72
2017-05-03T07:55:12.467Z,12.62
2017-05-03T07:56:21.421Z,12.85
2017-05-03T07:57:30.373Z,12.86
2017-05-03T07:58:39.322Z,12.89
2017-05-03T07:59:48.275Z,12.92
2017-05-03T08:00:57.479Z,13.04
2017-05-03T08:02:06.433Z,13.04
2017-05-03T08:03:15.403Z,13.03
2017-05-03T08:04:24.375Z,13.04
2017-05-03T08:05:33.332Z,13.05
2017-05-03T08:06:42.865Z,13
2017-05-03T08:07:51.822Z,13.01
2017-05-03T08:09:00.788Z,13.04
2017-05-03T08:10:10.064Z,13.19
2017-05-03T08:11:19.021Z,13.2
2017-05-03T08:12:28.231Z,13.22
2017-05-03T08:13:37.183Z,13.2
2017-05-03T08:14:46.232Z,13.22
2017-05-03T08:15:55.612Z,13.39
2017-05-03T08:17:04.692Z,13.39
2017-05-03T08:18:14.016Z,13.28
2017-05-03T08:19:23.009Z,13.29
2017-05-03T08:20:31.999Z,13.29
2017-05-03T08:21:41.593Z,13.41
2017-05-03T08:22:50.596Z,13.45
2017-05-03T08:23:59.855Z,13.44
2017-05-03T08:25:08.897Z,13.54
2017-05-03T08:26:18.388Z,13.57
2017-05-03T08:27:27.970Z,13.66
2017-05-03T08:28:37.177Z,13.77
2017-05-03T08:29:46.433Z,13.64
2017-05-03T08:30:55.406Z,13.81
2017-05-03T08:32:04.396Z,13.73
2017-05-03T08:33:13.383Z,13.73
2017-05-03T08:34:22.373Z,13.73
2017-05-03T08:35:31.689Z,13.78
2017-05-03T08:36:40.661Z,13.81
2017-05-03T08:37:49.639Z,13.97
2017-05-03T08:38:58.614Z,13.95
2017-05-03T08:40:07.676Z,14.02
2017-05-03T08:41:16.910Z,14.1
2017-05-03T08:42:25.889Z,14.1
2017-05-03T08:43:34.877Z,14.02
2017-05-03T08:44:43.840Z,14
2017-05-03T08:45:52.798Z,14.14
2017-05-03T08:47:02.143Z,14.17
2017-05-03T08:48:11.183Z,14.21
2017-05-03T08:49:20.225Z,14.09
2017-05-03T08:50:29.304Z,14.22
2017-05-03T08:51:38.436Z,14.33
2017-05-03T08:52:47.725Z,14.27
2017-05-03T08:53:57.178Z,14.32
2017-05-03T08:55:06.225Z,14.39
2017-05-03T08:56:15.333Z,14.37
2017-05-03T08:57:24.633Z,14.4
2017-05-03T08:58:34.180Z,14.47
2017-05-03T08:59:43.829Z,14.52
2017-05-03T09:00:52.907Z,14.43
2017-05-03T09:02:02.447Z,14.55
2017-05-03T09:03:11.696Z,14.5
2017-05-03T09:04:20.960Z,14.54
2017-05-03T09:05:30.022Z,14.55
2017-05-03T09:06:39.267Z,14.55
2017-05-03T09:07:48.378Z,14.65
2017-05-03T09:08:57.461Z,14.6
2017-05-03T09:10:06.820Z,14.6
2017-05-03T09:11:15.909Z,14.64
2017-05-03T09:12:24.914Z,14.69
2017-05-03T09:13:33.870Z,14.78
2017-05-03T09:14:43.080Z,14.89
2017-05-03T09:15:52.505Z,14.98
2017-05-03T09:17:01.641Z,15.03
2017-05-03T09:18:10.675Z,15.13
2017-05-03T09:19:19.975Z,15.14
2017-05-03T09:20:29.479Z,15.17
2017-05-03T09:21:38.771Z,15.2
2017-05-03T09:22:47.801Z,15.19
2017-05-03T09:23:57.017Z,15.21
2017-05-03T09:25:06.378Z,15.17
2017-05-03T09:26:15.506Z,15.23
2017-05-03T09:27:24.897Z,15.1
2017-05-03T09:28:33.944Z,15.14
2017-05-03T09:29:42.897Z,15.19
2017-05-03T09:30:51.876Z,15.13
2017-05-03T09:32:00.830Z,15.1
2017-05-03T09:33:10.208Z,15.07
2017-05-03T09:34:19.229Z,15.03
2017-05-03T09:35:28.381Z,14.99
2017-05-03T09:36:37.425Z,15.02
2017-05-03T09:37:46.557Z,15.03
2017-05-03T09:38:56.561Z,15.03
2017-05-03T09:40:05.857Z,15.07
2017-05-03T09:41:14.942Z,15.02
2017-05-03T09:42:24.175Z,15.21
2017-05-03T09:43:33.379Z,15.27
2017-05-03T09:44:42.825Z,15.34
2017-05-03T09:45:52.321Z,15.39
2017-05-03T09:47:01.736Z,15.47
2017-05-03T09:48:10.973Z,15.62
2017-05-03T09:49:20.069Z,15.64
2017-05-03T09:50:29.578Z,15.65
2017-05-03T09:51:38.694Z,15.56
2017-05-03T09:52:47.812Z,15.64
2017-05-03T09:53:57.010Z,15.59
2017-05-03T09:55:06.069Z,15.47
2017-05-03T09:56:15.367Z,15.38
2017-05-03T09:57:24.364Z,15.38
2017-05-03T09:58:33.323Z,15.43
2017-05-03T09:59:42.368Z,15.39
2017-05-03T10:00:51.326Z,15.46
2017-05-03T10:02:00.537Z,15.6
2017-05-03T10:03:09.661Z,15.67
2017-05-03T10:04:18.922Z,15.76
2017-05-03T10:05:28.042Z,15.89
2017-05-03T10:06:37.219Z,16.04
2017-05-03T10:07:46.707Z,16.11
2017-05-03T10:08:55.874Z,16.2
2017-05-03T10:10:05.214Z,16.34
2017-05-03T10:11:14.427Z,16.48
2017-05-03T10:12:23.764Z,16.52
2017-05-03T10:13:33.163Z,16.66
2017-05-03T10:14:42.352Z,16.71
2017-05-03T10:15:51.456Z,16.73
2017-05-03T10:17:00.998Z,16.79
2017-05-03T10:18:10.192Z,16.79
2017-05-03T10:19:19.403Z,16.75
2017-05-03T10:20:28.361Z,16.78
2017-05-03T10:21:37.325Z,16.76
2017-05-03T10:22:46.284Z,16.67
2017-05-03T10:23:55.244Z,16.71
2017-05-03T10:25:04.503Z,16.76
2017-05-03T10:26:13.462Z,16.71
2017-05-03T10:27:22.421Z,16.68
2017-05-03T10:28:31.388Z,16.7
2017-05-03T10:29:40.341Z,16.78
2017-05-03T10:30:49.549Z,16.67
2017-05-03T10:31:58.504Z,16.7
2017-05-03T10:33:07.550Z,16.73
2017-05-03T10:34:16.505Z,16.7
2017-05-03T10:35:25.454Z,16.76
2017-05-03T10:36:34.995Z,16.81
2017-05-03T10:37:43.947Z,16.81
2017-05-03T10:38:52.998Z,16.76
2017-05-03T10:40:01.954Z,16.85
2017-05-03T10:41:10.912Z,16.88
2017-05-03T10:42:20.136Z,16.85
2017-05-03T10:43:29.095Z,16.85
2017-05-03T10:44:38.053Z,16.86
2017-05-03T10:45:47.097Z,16.91
2017-05-03T10:46:56.050Z,16.96
2017-05-03T10:48:05.252Z,17.01
2017-05-03T10:49:14.210Z,16.89
2017-05-03T10:50:23.466Z,16.86
2017-05-03T10:51:32.583Z,16.85
2017-05-03T10:52:41.688Z,16.86
2017-05-03T10:53:51.008Z,16.67
2017-05-03T10:54:59.980Z,16.73
2017-05-03T10:56:09.034Z,16.67
2017-05-03T10:57:18.202Z,16.66
2017-05-03T10:58:27.352Z,16.7
2017-05-03T10:59:36.658Z,16.85
2017-05-03T11:00:45.698Z,16.86
2017-05-03T11:01:54.655Z,16.85
2017-05-03T11:03:03.639Z,16.89
2017-05-03T11:04:12.954Z,16.89
2017-05-03T11:05:22.161Z,16.83
2017-05-03T11:06:31.250Z,16.75
2017-05-03T11:07:40.304Z,16.76
2017-05-03T11:08:49.458Z,16.91
2017-05-03T11:09:58.657Z,16.82
2017-05-03T11:11:07.882Z,16.89
2017-05-03T11:12:16.838Z,16.94
2017-05-03T11:13:25.795Z,16.85
2017-05-03T11:14:34.750Z,16.89
2017-05-03T11:15:43.702Z,16.91
2017-05-03T11:16:52.907Z,16.86
2017-05-03T11:18:01.947Z,16.86
2017-05-03T11:19:10.902Z,16.79
2017-05-03T11:20:19.860Z,16.88
2017-05-03T11:21:28.907Z,17
2017-05-03T11:22:38.455Z,17.11
2017-05-03T11:23:47.411Z,17.16
2017-05-03T11:24:56.374Z,17.12
2017-05-03T11:26:05.624Z,17.15
2017-05-03T11:27:15.050Z,17.19
2017-05-03T11:28:24.302Z,17.25
2017-05-03T11:29:33.255Z,17.25
2017-05-03T11:30:42.218Z,17.3
2017-05-03T11:31:51.661Z,17.37
2017-05-03T11:33:00.614Z,17.49
2017-05-03T11:34:09.817Z,17.4
2017-05-03T11:35:18.773Z,17.43
2017-05-03T11:36:27.740Z,17.51
2017-05-03T11:37:36.704Z,17.48
2017-05-03T11:38:45.745Z,17.52
2017-05-03T11:39:54.949Z,17.56
2017-05-03T11:41:03.901Z,17.55
2017-05-03T11:42:13.192Z,17.58
2017-05-03T11:43:22.158Z,17.51
2017-05-03T11:44:31.203Z,17.49
2017-05-03T11:45:40.462Z,17.51
2017-05-03T11:46:49.423Z,17.56
2017-05-03T11:47:58.383Z,17.64
2017-05-03T11:49:07.387Z,17.63
2017-05-03T11:50:16.336Z,17.77
2017-05-03T11:51:25.541Z,17.64
2017-05-03T11:52:34.584Z,17.71
2017-05-03T11:53:43.539Z,17.63
2017-05-03T11:54:52.498Z,17.74
2017-05-03T11:56:01.453Z,17.72
2017-05-03T11:57:11.064Z,17.63
2017-05-03T11:58:20.016Z,17.66
2017-05-03T11:59:28.972Z,17.63
2017-05-03T12:00:37.934Z,17.58
2017-05-03T12:01:46.909Z,17.59
2017-05-03T12:02:56.208Z,17.62
2017-05-03T12:04:05.167Z,17.62
2017-05-03T12:05:14.122Z,17.63
2017-05-03T12:06:23.185Z,17.62
2017-05-03T12:07:32.596Z,17.71
2017-05-03T12:08:42.080Z,17.77
2017-05-03T12:09:51.117Z,17.78
2017-05-03T12:11:00.073Z,17.75
2017-05-03T12:12:09.032Z,17.84
2017-05-03T12:13:18.722Z,17.81
2017-05-03T12:14:27.928Z,17.77
2017-05-03T12:15:36.879Z,17.77
2017-05-03T12:16:45.840Z,17.78
2017-05-03T12:17:54.800Z,17.77
2017-05-03T12:19:03.840Z,17.68
2017-05-03T12:20:13.057Z,17.74
2017-05-03T12:21:22.015Z,17.62
2017-05-03T12:22:30.977Z,17.75
2017-05-03T12:23:39.931Z,17.62
2017-05-03T12:24:48.964Z,17.64
2017-05-03T12:25:58.225Z,17.59
2017-05-03T12:27:07.179Z,17.71
2017-05-03T12:28:16.135Z,17.71
2017-05-03T12:29:25.093Z,17.82
2017-05-03T12:30:34.085Z,17.86
2017-05-03T12:31:43.813Z,17.97
2017-05-03T12:32:52.952Z,17.9
2017-05-03T12:34:02.481Z,17.87
2017-05-03T12:35:11.434Z,17.79
2017-05-03T12:36:20.394Z,17.77
2017-05-03T12:37:29.605Z,17.79
2017-05-03T12:38:38.562Z,17.71
2017-05-03T12:39:47.525Z,17.72
2017-05-03T12:40:56.484Z,17.77
2017-05-03T12:42:05.529Z,17.86
2017-05-03T12:43:14.734Z,17.84
2017-05-03T12:44:23.784Z,17.77
2017-05-03T12:45:32.743Z,17.7
2017-05-03T12:46:41.698Z,17.77
2017-05-03T12:47:50.743Z,17.71
2017-05-03T12:49:00.326Z,17.64
2017-05-03T12:50:09.282Z,17.62
2017-05-03T12:51:18.246Z,17.63
2017-05-03T12:52:27.205Z,17.71
2017-05-03T12:53:36.492Z,17.78
2017-05-03T12:54:45.695Z,17.81
2017-05-03T12:55:54.656Z,17.75
2017-05-03T12:57:03.616Z,17.77
2017-05-03T12:58:12.664Z,17.75
2017-05-03T12:59:21.619Z,17.59
2017-05-03T13:00:30.880Z,17.66
2017-05-03T13:01:39.845Z,17.78
2017-05-03T13:02:48.825Z,17.63
2017-05-03T13:03:57.823Z,17.71
2017-05-03T13:05:06.790Z,17.7
2017-05-03T13:06:16.339Z,17.56
2017-05-03T13:07:26.063Z,17.7
2017-05-03T13:08:35.193Z,17.58
2017-05-03T13:09:44.154Z,17.58
2017-05-03T13:10:53.441Z,17.51
2017-05-03T13:12:02.669Z,17.4
2017-05-03T13:13:11.634Z,17.36
2017-05-03T13:14:20.590Z,17.26
2017-05-03T13:15:29.727Z,17.3
2017-05-03T13:16:38.687Z,17.34
2017-05-03T13:17:47.954Z,17.51
2017-05-03T13:18:57.338Z,17.51
2017-05-03T13:20:06.580Z,17.54
2017-05-03T13:21:15.895Z,17.56
2017-05-03T13:22:25.051Z,17.58
2017-05-03T13:23:34.369Z,17.58
2017-05-03T13:24:43.652Z,17.63
2017-05-03T13:25:52.764Z,17.66
2017-05-03T13:27:02.109Z,17.58
2017-05-03T13:28:11.288Z,17.52
2017-05-03T13:29:20.732Z,17.52
2017-05-03T13:30:29.857Z,17.54
2017-05-03T13:31:39.050Z,17.49
2017-05-03T13:32:48.104Z,17.52
2017-05-03T13:33:57.266Z,17.52
2017-05-03T13:35:06.577Z,17.54
2017-05-03T13:36:15.568Z,17.56
2017-05-03T13:37:24.524Z,17.56
2017-05-03T13:38:33.482Z,17.64
2017-05-03T13:39:42.440Z,17.56
2017-05-03T13:40:51.647Z,17.52
2017-05-03T13:42:00.698Z,17.54
2017-05-03T13:43:09.765Z,17.55
2017-05-03T13:44:19.011Z,17.66
2017-05-03T13:45:28.034Z,17.56
2017-05-03T13:46:37.328Z,17.59
2017-05-03T13:47:46.456Z,17.58
2017-05-03T13:48:55.427Z,17.41
2017-05-03T13:50:04.395Z,17.4
2017-05-03T13:51:13.354Z,17.22
2017-05-03T13:52:22.694Z,17.19
2017-05-03T13:53:31.780Z,17.11
2017-05-03T13:54:40.745Z,17.12
2017-05-03T13:55:49.703Z,16.93
2017-05-03T13:56:58.754Z,16.86
2017-05-03T13:58:07.967Z,16.76
2017-05-03T13:59:16.926Z,16.71
2017-05-03T14:00:25.923Z,16.71
2017-05-03T14:01:34.883Z,16.73
2017-05-03T14:02:43.961Z,16.73
2017-05-03T14:03:53.345Z,16.75
2017-05-03T14:05:02.484Z,16.64
2017-05-03T14:06:11.528Z,16.63
2017-05-03T14:07:20.730Z,16.57
2017-05-03T14:08:29.884Z,16.5
2017-05-03T14:09:39.203Z,16.63
2017-05-03T14:10:48.430Z,16.68
2017-05-03T14:11:57.547Z,16.71
2017-05-03T14:13:06.893Z,16.68
2017-05-03T14:14:16.085Z,16.68
2017-05-03T14:15:25.548Z,16.7
2017-05-03T14:16:34.597Z,16.71
2017-05-03T14:17:43.558Z,16.71
2017-05-03T14:18:52.519Z,16.7
2017-05-03T14:20:01.566Z,16.73
2017-05-03T14:21:10.862Z,16.76
2017-05-03T14:22:19.826Z,16.76
2017-05-03T14:23:28.784Z,16.76
2017-05-03T14:24:37.748Z,16.7
2017-05-03T14:25:46.706Z,16.7
2017-05-03T14:26:56.001Z,16.71
2017-05-03T14:28:04.957Z,16.66
2017-05-03T14:29:14.241Z,16.7
2017-05-03T14:30:23.195Z,16.7
2017-05-03T14:31:32.154Z,16.7
2017-05-03T14:32:41.366Z,16.73
2017-05-03T14:33:50.321Z,16.75
2017-05-03T14:34:59.282Z,16.61
2017-05-03T14:36:08.375Z,16.58
2017-05-03T14:37:17.402Z,16.48
2017-05-03T14:38:26.847Z,16.43
2017-05-03T14:39:36.121Z,16.46
2017-05-03T14:40:45.250Z,16.43
2017-05-03T14:41:54.407Z,16.46
2017-05-03T14:43:13.228Z,16.43
2017-05-03T14:44:26.183Z,16.45
2017-05-03T14:45:35.271Z,16.45
2017-05-03T14:46:44.333Z,16.41
2017-05-03T14:47:53.299Z,16.43
2017-05-03T14:49:02.511Z,16.34
2017-05-03T14:50:11.643Z,16.45
2017-05-03T14:51:20.606Z,16.35
2017-05-03T14:52:29.630Z,16.39